createdAt,value
2023-05-09T00:00:06.632Z,102010.63
2023-05-09T00:02:35.098Z,102010.13
2023-05-09T00:05:04.060Z,102010.31
2023-05-09T00:07:32.689Z,102009.53
2023-05-09T00:10:02.374Z,102019.06
2023-05-09T00:12:30.474Z,102015.31
2023-05-09T00:14:58.460Z,102010.13
2023-05-09T00:17:26.846Z,102015.31
2023-05-09T00:19:55.471Z,102012.91
2023-05-09T00:22:23.870Z,102009.78
2023-05-09T00:24:52.194Z,102004.16
2023-05-09T00:27:34.107Z,102010.59
2023-05-09T00:30:02.706Z,101998.88
2023-05-09T00:32:30.832Z,101993.72
2023-05-09T00:34:59.554Z,101997.66
2023-05-09T00:37:29.837Z,101989.91
2023-05-09T00:39:57.927Z,101985.97
2023-05-09T00:42:27.332Z,101984.50
2023-05-09T00:44:55.249Z,101971.06
2023-05-09T00:47:25.054Z,101973.34
2023-05-09T00:49:55.098Z,101976.03
2023-05-09T00:52:25.838Z,101974.00
2023-05-09T00:54:54.951Z,101968.00
2023-05-09T00:57:23.322Z,101969.84
2023-05-09T00:59:52.692Z,101964.53
2023-05-09T01:02:21.072Z,101964.91
2023-05-09T01:04:50.077Z,101965.97
2023-05-09T01:07:24.208Z,101951.78
2023-05-09T01:09:58.098Z,101954.41
2023-05-09T01:12:36.066Z,101946.34
2023-05-09T01:15:13.472Z,101946.41
2023-05-09T01:17:53.063Z,101937.88
2023-05-09T01:20:29.153Z,101941.84
2023-05-09T01:23:13.680Z,101932.84
2023-05-09T01:26:03.494Z,101932.97
2023-05-09T01:29:08.343Z,101929.50
2023-05-09T01:31:41.919Z,101924.09
2023-05-09T01:34:12.535Z,101920.16
2023-05-09T01:36:43.590Z,101915.75
2023-05-09T01:39:14.623Z,101915.31
2023-05-09T01:41:42.514Z,101913.75
2023-05-09T01:44:13.453Z,101913.84
2023-05-09T01:46:45.176Z,101912.63
2023-05-09T01:49:14.808Z,101908.00
2023-05-09T01:51:43.789Z,101907.91
2023-05-09T01:54:13.721Z,101916.75
2023-05-09T01:56:43.389Z,101912.44
2023-05-09T01:59:16.272Z,101912.44
2023-05-09T02:01:46.909Z,101911.19
2023-05-09T02:04:17.253Z,101912.28
2023-05-09T02:06:49.515Z,101908.91
2023-05-09T02:09:18.947Z,101906.53
2023-05-09T02:11:47.627Z,101905.00
2023-05-09T02:14:16.061Z,101905.31
2023-05-09T02:16:45.616Z,101907.69
2023-05-09T02:19:13.618Z,101911.28
2023-05-09T02:21:42.469Z,101909.78
2023-05-09T02:24:12.492Z,101911.06
2023-05-09T02:26:41.539Z,101900.03
2023-05-09T02:29:11.737Z,101900.34
2023-05-09T02:31:42.828Z,101900.03
2023-05-09T02:34:16.410Z,101901.84
2023-05-09T02:36:44.540Z,101908.28
2023-05-09T02:39:13.276Z,101898.59
2023-05-09T02:41:42.568Z,101891.38
2023-05-09T02:44:10.983Z,101895.28
2023-05-09T02:46:43.878Z,101896.31
2023-05-09T02:49:23.046Z,101888.34
2023-05-09T02:52:02.110Z,101894.56
2023-05-09T02:54:30.512Z,101892.19
2023-05-09T02:56:59.307Z,101889.22
2023-05-09T02:59:27.921Z,101887.81
2023-05-09T03:01:59.107Z,101876.63
2023-05-09T03:04:28.706Z,101878.53
2023-05-09T03:06:59.849Z,101881.22
2023-05-09T03:09:31.102Z,101880.41
2023-05-09T03:11:59.513Z,101877.03
2023-05-09T03:14:29.141Z,101872.59
2023-05-09T03:16:57.209Z,101879.28
2023-05-09T03:19:26.297Z,101867.59
2023-05-09T03:21:56.391Z,101872.38
2023-05-09T03:24:24.730Z,101874.53
2023-05-09T03:26:53.247Z,101873.81
2023-05-09T03:29:21.337Z,101874.00
2023-05-09T03:31:49.797Z,101864.66
2023-05-09T03:34:18.099Z,101864.13
2023-05-09T03:36:46.678Z,101867.25
2023-05-09T03:39:22.150Z,101862.34
2023-05-09T03:41:50.313Z,101861.25
2023-05-09T03:44:18.255Z,101856.22
2023-05-09T03:46:53.916Z,101852.81
2023-05-09T03:49:24.878Z,101848.63
2023-05-09T03:51:53.022Z,101849.72
2023-05-09T03:54:24.508Z,101848.03
2023-05-09T03:56:52.646Z,101845.16
2023-05-09T03:59:20.863Z,101848.91
2023-05-09T04:01:55.186Z,101843.84
2023-05-09T04:04:23.260Z,101847.81
2023-05-09T04:06:51.659Z,101844.25
2023-05-09T04:09:19.928Z,101854.94
2023-05-09T04:11:50.089Z,101849.34
2023-05-09T04:14:18.301Z,101843.66
2023-05-09T04:16:49.401Z,101847.13
2023-05-09T04:19:20.764Z,101842.88
2023-05-09T04:21:49.074Z,101837.16
2023-05-09T04:24:17.710Z,101838.75
2023-05-09T04:26:50.160Z,101831.75
2023-05-09T04:29:18.434Z,101829.44
2023-05-09T04:31:48.710Z,101833.25
2023-05-09T04:34:16.795Z,101823.53
2023-05-09T04:36:45.047Z,101827.09
2023-05-09T04:39:15.230Z,101826.44
2023-05-09T04:41:44.749Z,101822.91
2023-05-09T04:44:14.181Z,101819.53
2023-05-09T04:46:42.144Z,101821.31
2023-05-09T04:49:10.294Z,101825.38
2023-05-09T04:51:38.184Z,101819.91
2023-05-09T04:54:06.823Z,101813.25
2023-05-09T04:56:34.985Z,101810.28
2023-05-09T04:59:02.993Z,101814.63
2023-05-09T05:01:32.607Z,101817.84
2023-05-09T05:04:02.313Z,101804.88
2023-05-09T05:06:31.908Z,101808.25
2023-05-09T05:08:59.954Z,101797.28
2023-05-09T05:11:27.875Z,101796.19
2023-05-09T05:13:56.303Z,101795.91
2023-05-09T05:16:24.451Z,101786.31
2023-05-09T05:18:55.950Z,101788.69
2023-05-09T05:21:24.136Z,101781.34
2023-05-09T05:23:52.166Z,101776.50
2023-05-09T05:26:20.300Z,101787.50
2023-05-09T05:28:48.397Z,101771.81
2023-05-09T05:31:16.485Z,101772.84
2023-05-09T05:33:45.761Z,101772.75
2023-05-09T05:36:15.097Z,101776.03
2023-05-09T05:38:43.021Z,101764.66
2023-05-09T05:41:12.277Z,101773.59
2023-05-09T05:43:40.637Z,101765.34
2023-05-09T05:46:08.608Z,101752.59
2023-05-09T05:48:36.669Z,101748.91
2023-05-09T05:51:04.811Z,101757.53
2023-05-09T05:53:34.512Z,101751.78
2023-05-09T05:56:10.640Z,101752.47
2023-05-09T05:58:40.967Z,101748.63
2023-05-09T06:01:12.402Z,101744.84
2023-05-09T06:03:40.490Z,101749.41
2023-05-09T06:06:09.762Z,101753.28
2023-05-09T06:08:39.064Z,101744.56
2023-05-09T06:11:07.663Z,101749.34
2023-05-09T06:13:35.584Z,101750.03
2023-05-09T06:16:18.703Z,101739.66
2023-05-09T06:18:48.178Z,101743.13
2023-05-09T06:21:18.935Z,101749.59
2023-05-09T06:24:05.941Z,101744.25
2023-05-09T06:26:36.669Z,101753.66
2023-05-09T06:29:06.084Z,101745.53
2023-05-09T06:31:38.482Z,101748.66
2023-05-09T06:34:06.757Z,101737.59
2023-05-09T06:36:34.770Z,101719.28
2023-05-09T06:39:04.346Z,101717.22
2023-05-09T06:41:32.301Z,101718.25
2023-05-09T06:44:02.510Z,101708.88
2023-05-09T06:46:30.555Z,101704.09
2023-05-09T06:48:58.647Z,101697.69
2023-05-09T06:51:27.152Z,101685.25
2023-05-09T06:53:55.053Z,101679.06
2023-05-09T06:56:25.506Z,101674.53
2023-05-09T06:58:54.159Z,101672.31
2023-05-09T07:01:24.603Z,101671.53
2023-05-09T07:03:52.652Z,101661.28
2023-05-09T07:06:20.734Z,101660.91
2023-05-09T07:08:48.855Z,101657.78
2023-05-09T07:11:16.810Z,101656.91
2023-05-09T07:13:49.387Z,101646.88
2023-05-09T07:16:18.501Z,101649.38
2023-05-09T07:18:46.540Z,101649.31
2023-05-09T07:21:14.499Z,101650.41
2023-05-09T07:23:42.711Z,101642.69
2023-05-09T07:26:10.573Z,101646.50
2023-05-09T07:28:39.057Z,101640.88
2023-05-09T07:31:09.772Z,101636.50
2023-05-09T07:33:37.737Z,101642.22
2023-05-09T07:36:05.924Z,101636.09
2023-05-09T07:38:33.867Z,101629.69
2023-05-09T07:41:01.881Z,101623.44
2023-05-09T07:43:30.039Z,101616.97
2023-05-09T07:45:58.270Z,101611.06
2023-05-09T07:48:27.706Z,101610.28
2023-05-09T07:50:55.584Z,101601.13
2023-05-09T07:53:23.505Z,101604.63
2023-05-09T07:55:51.367Z,101594.09
2023-05-09T07:58:19.461Z,101593.72
2023-05-09T08:00:47.689Z,101585.13
2023-05-09T08:03:15.795Z,101594.72
2023-05-09T08:05:45.283Z,101590.72
2023-05-09T08:08:13.265Z,101577.22
2023-05-09T08:10:41.259Z,101584.25
2023-05-09T08:13:09.953Z,101577.88
2023-05-09T08:15:38.038Z,101583.81
2023-05-09T08:18:06.463Z,101572.06
2023-05-09T08:20:34.685Z,101563.41
2023-05-09T08:23:04.209Z,101562.44
2023-05-09T08:25:32.563Z,101559.91
2023-05-09T08:28:00.816Z,101562.44
2023-05-09T08:30:29.621Z,101557.25
2023-05-09T08:32:57.521Z,101557.44
2023-05-09T08:35:25.414Z,101547.94
2023-05-09T08:37:53.475Z,101553.44
2023-05-09T08:40:22.840Z,101548.28
2023-05-09T08:42:51.826Z,101545.22
2023-05-09T08:45:27.463Z,101545.97
2023-05-09T08:47:55.891Z,101548.78
2023-05-09T08:50:24.485Z,101541.47
2023-05-09T08:52:53.024Z,101540.38
2023-05-09T08:55:23.033Z,101545.91
2023-05-09T08:57:51.172Z,101532.31
2023-05-09T09:00:21.148Z,101542.31
2023-05-09T09:02:50.293Z,101533.69
2023-05-09T09:05:39.395Z,101533.41
2023-05-09T09:08:08.791Z,101512.88
2023-05-09T09:10:44.743Z,101512.59
2023-05-09T09:13:14.340Z,101519.91
2023-05-09T09:15:45.088Z,101505.34
2023-05-09T09:18:17.435Z,101510.56
2023-05-09T09:20:51.309Z,101516.63
2023-05-09T09:23:21.134Z,101506.00
2023-05-09T09:25:50.423Z,101503.84
2023-05-09T09:28:18.919Z,101504.63
2023-05-09T09:30:49.014Z,101510.25
2023-05-09T09:33:23.816Z,101497.91
2023-05-09T09:35:54.736Z,101501.78
2023-05-09T09:38:24.516Z,101492.97
2023-05-09T09:40:58.051Z,101488.38
2023-05-09T09:43:30.143Z,101490.47
2023-05-09T09:45:58.636Z,101473.97
2023-05-09T09:48:26.914Z,101478.03
2023-05-09T09:50:57.013Z,101469.06
2023-05-09T09:53:30.466Z,101468.63
2023-05-09T09:56:00.277Z,101464.72
2023-05-09T09:58:28.222Z,101474.03
2023-05-09T10:01:09.378Z,101462.13
2023-05-09T10:03:39.308Z,101456.16
2023-05-09T10:06:11.524Z,101455.72
2023-05-09T10:08:39.559Z,101454.16
2023-05-09T10:11:10.190Z,101455.00
2023-05-09T10:13:39.604Z,101462.69
2023-05-09T10:16:10.114Z,101446.81
2023-05-09T10:18:40.928Z,101444.28
2023-05-09T10:21:12.989Z,101456.88
2023-05-09T10:23:44.538Z,101430.97
2023-05-09T10:26:19.453Z,101423.78
2023-05-09T10:28:49.985Z,101418.38
2023-05-09T10:31:23.828Z,101424.16
2023-05-09T10:33:52.691Z,101417.25
2023-05-09T10:36:23.300Z,101406.47
2023-05-09T10:38:52.516Z,101400.16
2023-05-09T10:41:23.886Z,101406.09
2023-05-09T10:43:52.461Z,101396.03
2023-05-09T10:46:21.170Z,101390.72
2023-05-09T10:48:50.088Z,101383.28
2023-05-09T10:51:18.733Z,101378.59
2023-05-09T10:53:49.365Z,101380.59
2023-05-09T10:56:27.623Z,101364.69
2023-05-09T10:58:55.831Z,101365.97
2023-05-09T11:01:33.013Z,101353.16
2023-05-09T11:04:01.646Z,101357.34
2023-05-09T11:06:51.532Z,101341.25
2023-05-09T11:09:32.607Z,101350.69
2023-05-09T11:12:10.210Z,101339.63
2023-05-09T11:14:44.448Z,101334.94
2023-05-09T11:17:13.858Z,101343.84
2023-05-09T11:20:05.508Z,101335.78
2023-05-09T11:22:41.505Z,101330.16
2023-05-09T11:25:11.037Z,101320.63
2023-05-09T11:27:45.787Z,101313.63
2023-05-09T11:30:15.589Z,101325.53
2023-05-09T11:32:46.842Z,101310.09
2023-05-09T11:35:17.790Z,101316.78
2023-05-09T11:37:48.253Z,101297.81
2023-05-09T11:40:18.592Z,101294.94
2023-05-09T11:42:50.721Z,101287.19
2023-05-09T11:45:19.339Z,101279.72
2023-05-09T11:47:48.143Z,101283.91
2023-05-09T11:50:18.460Z,101267.09
2023-05-09T11:52:47.355Z,101283.16
2023-05-09T11:55:16.984Z,101281.69
2023-05-09T11:57:49.188Z,101274.47
2023-05-09T12:00:18.958Z,101275.78
2023-05-09T12:02:49.259Z,101274.13
2023-05-09T12:05:19.177Z,101268.44
2023-05-09T12:07:47.817Z,101256.31
2023-05-09T12:10:18.320Z,101263.69
2023-05-09T12:12:49.859Z,101253.56
2023-05-09T12:15:19.216Z,101247.56
2023-05-09T12:17:49.753Z,101244.00
2023-05-09T12:20:19.937Z,101250.78
2023-05-09T12:22:54.158Z,101231.38
2023-05-09T12:25:23.934Z,101245.78
2023-05-09T12:27:54.663Z,101232.56
2023-05-09T12:30:23.161Z,101236.31
2023-05-09T12:32:51.504Z,101232.63
2023-05-09T12:35:23.392Z,101240.34
2023-05-09T12:37:57.949Z,101232.22
2023-05-09T12:40:26.364Z,101233.94
2023-05-09T12:43:02.704Z,101239.81
2023-05-09T12:45:33.681Z,101230.19
2023-05-09T12:48:02.536Z,101224.91
2023-05-09T12:50:36.018Z,101242.09
2023-05-09T12:53:05.284Z,101232.28
2023-05-09T12:55:40.707Z,101235.97
2023-05-09T12:58:09.985Z,101231.38
2023-05-09T13:00:44.786Z,101230.09
2023-05-09T13:03:26.008Z,101224.47
2023-05-09T13:06:01.551Z,101230.41
2023-05-09T13:08:30.676Z,101218.69
2023-05-09T13:11:12.185Z,101208.28
2023-05-09T13:13:45.493Z,101193.41
2023-05-09T13:16:15.006Z,101216.66
2023-05-09T13:18:45.444Z,101199.06
2023-05-09T13:21:13.356Z,101201.88
2023-05-09T13:23:42.743Z,101194.03
2023-05-09T13:26:11.544Z,101192.88
2023-05-09T13:28:39.528Z,101180.00
2023-05-09T13:31:08.930Z,101183.28
2023-05-09T13:33:37.033Z,101168.69
2023-05-09T13:36:06.296Z,101176.38
2023-05-09T13:38:38.708Z,101168.69
2023-05-09T13:41:06.760Z,101172.53
2023-05-09T13:43:35.307Z,101158.59
2023-05-09T13:46:04.036Z,101164.97
2023-05-09T13:48:33.621Z,101172.44
2023-05-09T13:51:07.296Z,101158.63
2023-05-09T13:53:43.614Z,101152.31
2023-05-09T13:56:15.572Z,101163.03
2023-05-09T13:58:44.146Z,101148.06
2023-05-09T14:01:12.232Z,101150.88
2023-05-09T14:03:42.245Z,101138.97
2023-05-09T14:06:12.451Z,101157.44
2023-05-09T14:08:41.690Z,101133.00
2023-05-09T14:11:12.857Z,101134.56
2023-05-09T14:13:41.125Z,101134.72
2023-05-09T14:16:09.855Z,101137.19
2023-05-09T14:18:37.862Z,101120.78
2023-05-09T14:21:08.732Z,101120.84
2023-05-09T14:23:36.715Z,101119.34
2023-05-09T14:26:04.814Z,101111.72
2023-05-09T14:28:32.965Z,101101.19
2023-05-09T14:31:01.594Z,101134.03
2023-05-09T14:33:29.816Z,101104.38
2023-05-09T14:35:57.979Z,101098.97
2023-05-09T14:38:27.482Z,101093.72
2023-05-09T14:40:56.003Z,101092.28
2023-05-09T14:43:24.466Z,101090.53
2023-05-09T14:45:52.555Z,101083.81
2023-05-09T14:48:20.554Z,101084.00
2023-05-09T14:50:49.911Z,101063.41
2023-05-09T14:53:17.837Z,101075.47
2023-05-09T14:55:47.341Z,101071.59
2023-05-09T14:58:16.185Z,101080.63
2023-05-09T15:00:44.234Z,101064.28
2023-05-09T15:03:12.411Z,101064.97
2023-05-09T15:05:43.087Z,101061.75
2023-05-09T15:08:12.635Z,101060.75
2023-05-09T15:10:40.806Z,101045.78
2023-05-09T15:13:11.314Z,101054.44
2023-05-09T15:15:40.592Z,101037.22
2023-05-09T15:18:11.599Z,101040.81
2023-05-09T15:20:39.723Z,101052.88
2023-05-09T15:23:08.695Z,101036.97
2023-05-09T15:25:36.721Z,101029.50
2023-05-09T15:28:04.624Z,101018.97
2023-05-09T15:30:35.307Z,101031.78
2023-05-09T15:33:04.795Z,101023.41
2023-05-09T15:35:32.827Z,101018.97
2023-05-09T15:38:00.851Z,101026.41
2023-05-09T15:40:29.194Z,101008.72
2023-05-09T15:43:00.106Z,101023.13
2023-05-09T15:45:28.851Z,101001.91
2023-05-09T15:47:58.582Z,101011.94
2023-05-09T15:50:26.740Z,100992.44
2023-05-09T15:52:54.762Z,100986.44
2023-05-09T15:55:23.312Z,100998.88
2023-05-09T15:57:52.561Z,100995.78
2023-05-09T16:00:20.882Z,100989.34
2023-05-09T16:02:48.957Z,100985.09
2023-05-09T16:05:19.331Z,100987.09
2023-05-09T16:07:50.221Z,100975.38
2023-05-09T16:10:18.657Z,100978.38
2023-05-09T16:12:46.619Z,100981.41
2023-05-09T16:15:14.734Z,100977.47
2023-05-09T16:17:43.558Z,100984.50
2023-05-09T16:20:14.982Z,100978.22
2023-05-09T16:22:44.616Z,100975.47
2023-05-09T16:25:13.979Z,100974.28
2023-05-09T16:27:42.269Z,100963.91
2023-05-09T16:30:12.458Z,100960.72
2023-05-09T16:32:40.611Z,100961.88
2023-05-09T16:35:09.559Z,100954.28
2023-05-09T16:37:37.949Z,100956.84
2023-05-09T16:40:08.594Z,100956.97
2023-05-09T16:42:36.846Z,100937.16
2023-05-09T16:45:05.684Z,100953.75
2023-05-09T16:47:33.834Z,100959.34
2023-05-09T16:50:01.795Z,100942.19
2023-05-09T16:52:30.569Z,100933.88
2023-05-09T16:54:59.570Z,100934.06
2023-05-09T16:57:28.902Z,100931.00
2023-05-09T16:59:56.995Z,100937.16
2023-05-09T17:02:25.188Z,100940.88
2023-05-09T17:04:53.291Z,100933.34
2023-05-09T17:07:21.585Z,100920.81
2023-05-09T17:09:49.849Z,100916.94
2023-05-09T17:12:18.580Z,100916.25
2023-05-09T17:14:49.231Z,100917.91
2023-05-09T17:17:18.732Z,100918.88
2023-05-09T17:19:47.476Z,100918.44
2023-05-09T17:22:15.754Z,100915.84
2023-05-09T17:24:44.052Z,100921.16
2023-05-09T17:27:11.980Z,100914.38
2023-05-09T17:29:40.201Z,100914.22
2023-05-09T17:32:09.552Z,100906.88
2023-05-09T17:34:39.196Z,100921.69
2023-05-09T17:37:09.172Z,100904.81
2023-05-09T17:39:37.748Z,100900.78
2023-05-09T17:42:07.148Z,100906.63
2023-05-09T17:44:35.616Z,100915.63
2023-05-09T17:47:04.390Z,100919.63
2023-05-09T17:49:34.203Z,100913.91
2023-05-09T17:52:02.190Z,100909.41
2023-05-09T17:54:30.207Z,100902.72
2023-05-09T17:57:03.639Z,100903.16
2023-05-09T17:59:32.338Z,100907.22
2023-05-09T18:02:00.464Z,100905.50
2023-05-09T18:04:30.814Z,100909.38
2023-05-09T18:07:00.230Z,100902.09
2023-05-09T18:09:30.339Z,100893.91
2023-05-09T18:11:59.479Z,100891.31
2023-05-09T18:14:29.705Z,100881.72
2023-05-09T18:16:57.913Z,100901.31
2023-05-09T18:19:27.485Z,100897.31
2023-05-09T18:21:55.563Z,100903.72
2023-05-09T18:24:25.352Z,100912.53
2023-05-09T18:26:57.133Z,100907.25
2023-05-09T18:29:25.503Z,100901.34
2023-05-09T18:31:57.193Z,100902.47
2023-05-09T18:34:25.625Z,100912.88
2023-05-09T18:36:53.755Z,100903.81
2023-05-09T18:39:21.618Z,100899.81
2023-05-09T18:41:51.228Z,100906.97
2023-05-09T18:44:19.163Z,100899.50
2023-05-09T18:46:47.179Z,100897.66
2023-05-09T18:49:18.317Z,100896.34
2023-05-09T18:51:47.016Z,100894.53
2023-05-09T18:54:15.288Z,100891.44
2023-05-09T18:56:44.217Z,100883.78
2023-05-09T18:59:16.378Z,100885.75
2023-05-09T19:01:45.433Z,100888.78
2023-05-09T19:04:14.135Z,100891.53
2023-05-09T19:06:42.556Z,100889.13
2023-05-09T19:09:11.680Z,100897.38
2023-05-09T19:11:39.607Z,100893.56
2023-05-09T19:14:07.545Z,100898.41
2023-05-09T19:16:38.005Z,100891.13
2023-05-09T19:19:06.028Z,100897.72
2023-05-09T19:21:35.684Z,100892.00
2023-05-09T19:24:04.691Z,100896.72
2023-05-09T19:26:32.636Z,100893.03
2023-05-09T19:29:04.210Z,100892.91
2023-05-09T19:31:32.356Z,100898.22
2023-05-09T19:34:02.089Z,100897.88
2023-05-09T19:36:30.201Z,100891.09
2023-05-09T19:38:58.074Z,100897.47
2023-05-09T19:41:26.022Z,100901.03
2023-05-09T19:43:54.921Z,100906.03
2023-05-09T19:46:23.179Z,100900.03
2023-05-09T19:48:51.262Z,100905.56
2023-05-09T19:51:29.060Z,100899.75
2023-05-09T19:53:57.141Z,100899.03
2023-05-09T19:56:25.288Z,100897.19
2023-05-09T19:58:53.161Z,100892.91
2023-05-09T20:01:21.081Z,100895.63
2023-05-09T20:03:50.685Z,100898.63
2023-05-09T20:06:20.775Z,100891.22
2023-05-09T20:08:51.376Z,100888.81
2023-05-09T20:11:19.529Z,100897.75
2023-05-09T20:13:47.417Z,100891.66
2023-05-09T20:16:15.541Z,100890.34
2023-05-09T20:18:44.186Z,100894.19
2023-05-09T20:21:12.693Z,100884.66
2023-05-09T20:23:42.135Z,100890.34
2023-05-09T20:26:10.218Z,100884.06
2023-05-09T20:28:38.205Z,100887.63
2023-05-09T20:31:06.321Z,100882.59
2023-05-09T20:33:35.111Z,100882.72
2023-05-09T20:36:03.262Z,100889.25
2023-05-09T20:38:31.274Z,100881.41
2023-05-09T20:41:00.511Z,100880.44
2023-05-09T20:43:28.876Z,100876.00
2023-05-09T20:45:57.392Z,100880.41
2023-05-09T20:48:25.987Z,100877.81
2023-05-09T20:50:54.271Z,100873.44
2023-05-09T20:53:26.421Z,100872.41
2023-05-09T20:55:55.173Z,100872.13
2023-05-09T20:58:24.696Z,100864.56
2023-05-09T21:00:52.823Z,100877.91
2023-05-09T21:03:21.229Z,100871.06
2023-05-09T21:05:51.155Z,100864.38
2023-05-09T21:08:19.408Z,100865.25
2023-05-09T21:10:48.236Z,100860.72
2023-05-09T21:13:16.432Z,100857.25
2023-05-09T21:15:46.704Z,100846.28
2023-05-09T21:18:16.853Z,100850.28
2023-05-09T21:20:45.157Z,100846.47
2023-05-09T21:23:15.107Z,100847.47
2023-05-09T21:25:43.889Z,100850.84
2023-05-09T21:28:11.918Z,100844.69
2023-05-09T21:30:39.962Z,100850.06
2023-05-09T21:33:09.423Z,100838.19
2023-05-09T21:35:37.542Z,100830.00
2023-05-09T21:38:05.668Z,100836.72
2023-05-09T21:40:33.857Z,100838.72
2023-05-09T21:43:01.884Z,100830.00
2023-05-09T21:45:30.237Z,100830.53
2023-05-09T21:47:58.263Z,100830.53
2023-05-09T21:50:27.575Z,100823.69
2023-05-09T21:52:57.668Z,100827.53
2023-05-09T21:55:25.834Z,100821.22
2023-05-09T21:57:54.235Z,100807.47
2023-05-09T22:00:22.848Z,100812.63
2023-05-09T22:02:50.884Z,100820.28
2023-05-09T22:05:19.115Z,100807.84
2023-05-09T22:07:48.544Z,100806.06
2023-05-09T22:10:17.011Z,100804.56
2023-05-09T22:12:45.259Z,100805.41
2023-05-09T22:15:13.346Z,100804.13
2023-05-09T22:17:41.575Z,100810.47
2023-05-09T22:20:10.606Z,100802.66
2023-05-09T22:22:38.918Z,100799.38
2023-05-09T22:25:08.743Z,100796.69
2023-05-09T22:27:37.077Z,100795.81
2023-05-09T22:30:06.189Z,100792.28
2023-05-09T22:32:34.524Z,100803.09
2023-05-09T22:35:03.013Z,100792.84
2023-05-09T22:37:31.605Z,100799.53
2023-05-09T22:40:01.415Z,100799.59
2023-05-09T22:42:32.105Z,100798.19
2023-05-09T22:45:00.286Z,100784.78
2023-05-09T22:47:28.294Z,100791.94
2023-05-09T22:49:56.440Z,100783.72
2023-05-09T22:52:24.338Z,100785.56
2023-05-09T22:54:52.265Z,100781.38
2023-05-09T22:57:20.737Z,100783.47
2023-05-09T22:59:51.319Z,100774.47
2023-05-09T23:02:19.453Z,100774.41
2023-05-09T23:04:47.532Z,100778.91
2023-05-09T23:07:15.934Z,100769.88
2023-05-09T23:09:44.296Z,100765.34
2023-05-09T23:12:12.556Z,100766.72
2023-05-09T23:14:40.531Z,100766.47
2023-05-09T23:17:10.211Z,100772.72
2023-05-09T23:19:38.359Z,100765.97
2023-05-09T23:22:06.281Z,100764.72
2023-05-09T23:24:34.246Z,100757.81
2023-05-09T23:27:03.152Z,100753.03
2023-05-09T23:29:31.110Z,100756.81
2023-05-09T23:31:59.024Z,100747.09
2023-05-09T23:34:28.915Z,100748.56
2023-05-09T23:36:56.826Z,100746.19
2023-05-09T23:39:24.714Z,100749.97
2023-05-09T23:41:52.827Z,100748.03
2023-05-09T23:44:20.894Z,100747.47
2023-05-09T23:46:48.831Z,100737.25
2023-05-09T23:49:17.122Z,100749.59
2023-05-09T23:51:46.648Z,100746.91
2023-05-09T23:54:16.649Z,100734.78
2023-05-09T23:56:44.759Z,100739.56
2023-05-09T23:59:12.710Z,100742.75
